sensor_id;sensor_type;location;lat;lon;timestamp;P1;durP1;ratioP1;P2;durP2;ratioP2
67762;SDS011;54566;52.022;5.582;2023-01-16T00:01:11;4.57;;;1.50;;
67762;SDS011;54566;52.022;5.582;2023-01-16T00:03:37;5.00;;;1.95;;
67762;SDS011;54566;52.022;5.582;2023-01-16T00:06:03;5.25;;;1.80;;
67762;SDS011;54566;52.022;5.582;2023-01-16T00:08:30;3.40;;;1.95;;
67762;SDS011;54566;52.022;5.582;2023-01-16T00:10:56;3.38;;;1.90;;
67762;SDS011;54566;52.022;5.582;2023-01-16T00:13:22;5.95;;;2.17;;
67762;SDS011;54566;52.022;5.582;2023-01-16T00:15:49;4.85;;;2.50;;
67762;SDS011;54566;52.022;5.582;2023-01-16T00:18:15;7.35;;;2.63;;
67762;SDS011;54566;52.022;5.582;2023-01-16T00:20:41;6.53;;;2.55;;
67762;SDS011;54566;52.022;5.582;2023-01-16T00:23:07;5.30;;;2.50;;
67762;SDS011;54566;52.022;5.582;2023-01-16T00:25:34;7.00;;;2.88;;
67762;SDS011;54566;52.022;5.582;2023-01-16T00:28:03;5.57;;;2.92;;
67762;SDS011;54566;52.022;5.582;2023-01-16T00:30:29;5.95;;;2.90;;
67762;SDS011;54566;52.022;5.582;2023-01-16T00:32:55;3.42;;;2.78;;
67762;SDS011;54566;52.022;5.582;2023-01-16T00:35:21;6.20;;;3.28;;
67762;SDS011;54566;52.022;5.582;2023-01-16T00:37:47;8.23;;;3.40;;
67762;SDS011;54566;52.022;5.582;2023-01-16T00:40:13;7.90;;;3.50;;
67762;SDS011;54566;52.022;5.582;2023-01-16T00:42:39;5.50;;;3.42;;
67762;SDS011;54566;52.022;5.582;2023-01-16T00:45:06;5.82;;;3.60;;
67762;SDS011;54566;52.022;5.582;2023-01-16T00:47:32;8.93;;;4.00;;
67762;SDS011;54566;52.022;5.582;2023-01-16T00:49:59;6.60;;;3.80;;
67762;SDS011;54566;52.022;5.582;2023-01-16T00:52:25;6.65;;;4.10;;
67762;SDS011;54566;52.022;5.582;2023-01-16T00:54:51;9.60;;;4.30;;
67762;SDS011;54566;52.022;5.582;2023-01-16T00:57:17;7.43;;;4.20;;
67762;SDS011;54566;52.022;5.582;2023-01-16T00:59:43;8.48;;;4.60;;
67762;SDS011;54566;52.022;5.582;2023-01-16T01:02:09;8.23;;;4.55;;
67762;SDS011;54566;52.022;5.582;2023-01-16T01:04:35;11.00;;;5.20;;
67762;SDS011;54566;52.022;5.582;2023-01-16T01:07:01;8.43;;;4.95;;
67762;SDS011;54566;52.022;5.582;2023-01-16T01:09:27;7.63;;;4.75;;
67762;SDS011;54566;52.022;5.582;2023-01-16T01:11:55;7.53;;;5.07;;
67762;SDS011;54566;52.022;5.582;2023-01-16T01:14:21;9.02;;;5.05;;
67762;SDS011;54566;52.022;5.582;2023-01-16T01:16:47;12.45;;;6.32;;
67762;SDS011;54566;52.022;5.582;2023-01-16T01:19:13;8.50;;;5.90;;
67762;SDS011;54566;52.022;5.582;2023-01-16T01:21:39;9.57;;;6.07;;
67762;SDS011;54566;52.022;5.582;2023-01-16T01:24:05;10.43;;;5.97;;
67762;SDS011;54566;52.022;5.582;2023-01-16T01:26:31;8.95;;;6.72;;
67762;SDS011;54566;52.022;5.582;2023-01-16T01:28:57;11.00;;;7.43;;
67762;SDS011;54566;52.022;5.582;2023-01-16T01:31:24;11.02;;;6.80;;
67762;SDS011;54566;52.022;5.582;2023-01-16T01:33:50;14.07;;;7.60;;
67762;SDS011;54566;52.022;5.582;2023-01-16T01:36:17;11.05;;;7.22;;
67762;SDS011;54566;52.022;5.582;2023-01-16T01:38:43;11.07;;;7.35;;
67762;SDS011;54566;52.022;5.582;2023-01-16T01:41:12;13.00;;;7.37;;
67762;SDS011;54566;52.022;5.582;2023-01-16T01:43:39;19.75;;;6.85;;
67762;SDS011;54566;52.022;5.582;2023-01-16T01:46:05;8.35;;;5.78;;
67762;SDS011;54566;52.022;5.582;2023-01-16T01:48:35;12.45;;;5.65;;
67762;SDS011;54566;52.022;5.582;2023-01-16T01:51:08;11.90;;;6.00;;
67762;SDS011;54566;52.022;5.582;2023-01-16T01:53:43;16.55;;;5.78;;
67762;SDS011;54566;52.022;5.582;2023-01-16T01:56:13;14.15;;;4.78;;
67762;SDS011;54566;52.022;5.582;2023-01-16T01:58:39;10.70;;;4.80;;
67762;SDS011;54566;52.022;5.582;2023-01-16T02:01:06;10.43;;;4.13;;
67762;SDS011;54566;52.022;5.582;2023-01-16T02:03:33;11.85;;;4.32;;
67762;SDS011;54566;52.022;5.582;2023-01-16T02:06:00;10.77;;;3.38;;
67762;SDS011;54566;52.022;5.582;2023-01-16T02:08:27;9.88;;;3.72;;
67762;SDS011;54566;52.022;5.582;2023-01-16T02:10:56;11.95;;;3.55;;
67762;SDS011;54566;52.022;5.582;2023-01-16T02:13:24;13.93;;;3.75;;
67762;SDS011;54566;52.022;5.582;2023-01-16T02:15:50;5.55;;;3.42;;
67762;SDS011;54566;52.022;5.582;2023-01-16T02:18:35;10.93;;;4.18;;
67762;SDS011;54566;52.022;5.582;2023-01-16T02:26:23;13.43;;;4.65;;
67762;SDS011;54566;52.022;5.582;2023-01-16T02:31:31;8.63;;;4.30;;
67762;SDS011;54566;52.022;5.582;2023-01-16T02:34:03;12.65;;;3.88;;
67762;SDS011;54566;52.022;5.582;2023-01-16T02:36:52;14.77;;;3.72;;
67762;SDS011;54566;52.022;5.582;2023-01-16T02:44:35;7.97;;;2.67;;
67762;SDS011;54566;52.022;5.582;2023-01-16T02:47:20;12.00;;;2.47;;
67762;SDS011;54566;52.022;5.582;2023-01-16T02:52:35;8.60;;;2.95;;
67762;SDS011;54566;52.022;5.582;2023-01-16T02:55:18;10.85;;;2.20;;
67762;SDS011;54566;52.022;5.582;2023-01-16T02:57:47;16.30;;;2.25;;
67762;SDS011;54566;52.022;5.582;2023-01-16T03:00:15;7.18;;;2.28;;
67762;SDS011;54566;52.022;5.582;2023-01-16T03:02:44;6.10;;;1.90;;
67762;SDS011;54566;52.022;5.582;2023-01-16T03:05:11;5.47;;;1.52;;
67762;SDS011;54566;52.022;5.582;2023-01-16T03:08:01;4.60;;;2.17;;
67762;SDS011;54566;52.022;5.582;2023-01-16T03:10:29;4.00;;;1.40;;
67762;SDS011;54566;52.022;5.582;2023-01-16T03:13:09;10.68;;;1.55;;
67762;SDS011;54566;52.022;5.582;2023-01-16T03:15:41;5.88;;;1.70;;
67762;SDS011;54566;52.022;5.582;2023-01-16T03:18:10;3.95;;;1.50;;
67762;SDS011;54566;52.022;5.582;2023-01-16T03:20:57;9.20;;;1.65;;
67762;SDS011;54566;52.022;5.582;2023-01-16T03:23:30;7.53;;;1.80;;
67762;SDS011;54566;52.022;5.582;2023-01-16T03:26:08;4.70;;;1.27;;
67762;SDS011;54566;52.022;5.582;2023-01-16T03:28:40;7.30;;;1.90;;
67762;SDS011;54566;52.022;5.582;2023-01-16T03:36:36;6.68;;;1.67;;
67762;SDS011;54566;52.022;5.582;2023-01-16T03:39:05;14.32;;;1.45;;
67762;SDS011;54566;52.022;5.582;2023-01-16T03:41:32;9.50;;;1.98;;
67762;SDS011;54566;52.022;5.582;2023-01-16T03:44:01;6.55;;;1.42;;
67762;SDS011;54566;52.022;5.582;2023-01-16T03:46:29;9.65;;;1.95;;
67762;SDS011;54566;52.022;5.582;2023-01-16T03:49:16;5.47;;;1.42;;
67762;SDS011;54566;52.022;5.582;2023-01-16T03:51:48;16.08;;;1.77;;
67762;SDS011;54566;52.022;5.582;2023-01-16T03:57:04;12.30;;;1.92;;
67762;SDS011;54566;52.022;5.582;2023-01-16T03:59:32;7.68;;;1.60;;
67762;SDS011;54566;52.022;5.582;2023-01-16T04:07:04;11.75;;;1.67;;
67762;SDS011;54566;52.022;5.582;2023-01-16T04:09:36;14.27;;;1.63;;
67762;SDS011;54566;52.022;5.582;2023-01-16T04:12:04;7.10;;;1.70;;
67762;SDS011;54566;52.022;5.582;2023-01-16T04:14:33;4.50;;;1.73;;
67762;SDS011;54566;52.022;5.582;2023-01-16T04:17:00;8.15;;;1.90;;
67762;SDS011;54566;52.022;5.582;2023-01-16T04:19:26;9.07;;;2.33;;
67762;SDS011;54566;52.022;5.582;2023-01-16T04:21:54;7.82;;;2.15;;
67762;SDS011;54566;52.022;5.582;2023-01-16T04:24:20;5.53;;;1.52;;
67762;SDS011;54566;52.022;5.582;2023-01-16T04:26:46;7.43;;;2.03;;
67762;SDS011;54566;52.022;5.582;2023-01-16T04:29:12;6.55;;;1.98;;
67762;SDS011;54566;52.022;5.582;2023-01-16T04:31:38;16.33;;;2.30;;
67762;SDS011;54566;52.022;5.582;2023-01-16T04:34:05;14.90;;;1.98;;
67762;SDS011;54566;52.022;5.582;2023-01-16T04:36:31;4.68;;;1.90;;
67762;SDS011;54566;52.022;5.582;2023-01-16T04:38:57;5.78;;;1.92;;
67762;SDS011;54566;52.022;5.582;2023-01-16T04:41:23;4.78;;;1.48;;
67762;SDS011;54566;52.022;5.582;2023-01-16T04:44:05;4.75;;;1.73;;
67762;SDS011;54566;52.022;5.582;2023-01-16T04:46:32;8.05;;;1.52;;
67762;SDS011;54566;52.022;5.582;2023-01-16T04:48:58;6.60;;;1.63;;
67762;SDS011;54566;52.022;5.582;2023-01-16T04:51:25;8.45;;;1.65;;
67762;SDS011;54566;52.022;5.582;2023-01-16T04:53:51;8.57;;;1.75;;
67762;SDS011;54566;52.022;5.582;2023-01-16T04:56:17;4.15;;;1.50;;
67762;SDS011;54566;52.022;5.582;2023-01-16T04:58:43;8.52;;;1.98;;
67762;SDS011;54566;52.022;5.582;2023-01-16T05:01:09;7.40;;;1.73;;
67762;SDS011;54566;52.022;5.582;2023-01-16T05:03:35;5.20;;;1.40;;
67762;SDS011;54566;52.022;5.582;2023-01-16T05:06:01;7.57;;;1.58;;
67762;SDS011;54566;52.022;5.582;2023-01-16T05:08:27;9.27;;;1.60;;
67762;SDS011;54566;52.022;5.582;2023-01-16T05:10:53;7.35;;;1.80;;
67762;SDS011;54566;52.022;5.582;2023-01-16T05:13:20;8.27;;;1.90;;
67762;SDS011;54566;52.022;5.582;2023-01-16T05:15:46;6.97;;;1.40;;
67762;SDS011;54566;52.022;5.582;2023-01-16T05:18:13;8.98;;;2.08;;
67762;SDS011;54566;52.022;5.582;2023-01-16T05:20:39;7.43;;;1.95;;
67762;SDS011;54566;52.022;5.582;2023-01-16T05:23:05;8.50;;;1.80;;
67762;SDS011;54566;52.022;5.582;2023-01-16T05:25:35;11.40;;;1.50;;
67762;SDS011;54566;52.022;5.582;2023-01-16T05:28:01;13.85;;;2.00;;
67762;SDS011;54566;52.022;5.582;2023-01-16T05:30:27;11.82;;;1.95;;
67762;SDS011;54566;52.022;5.582;2023-01-16T05:32:59;8.45;;;1.73;;
67762;SDS011;54566;52.022;5.582;2023-01-16T05:35:26;8.52;;;2.00;;
67762;SDS011;54566;52.022;5.582;2023-01-16T05:37:52;7.15;;;2.13;;
67762;SDS011;54566;52.022;5.582;2023-01-16T05:40:22;7.05;;;1.63;;
67762;SDS011;54566;52.022;5.582;2023-01-16T05:42:48;6.68;;;1.50;;
67762;SDS011;54566;52.022;5.582;2023-01-16T05:45:14;6.05;;;1.30;;
67762;SDS011;54566;52.022;5.582;2023-01-16T05:47:40;7.75;;;1.80;;
67762;SDS011;54566;52.022;5.582;2023-01-16T05:50:06;6.80;;;1.88;;
67762;SDS011;54566;52.022;5.582;2023-01-16T05:52:32;5.63;;;1.52;;
67762;SDS011;54566;52.022;5.582;2023-01-16T05:54:59;5.22;;;1.58;;
67762;SDS011;54566;52.022;5.582;2023-01-16T05:57:28;16.23;;;2.50;;
67762;SDS011;54566;52.022;5.582;2023-01-16T05:59:57;9.20;;;1.90;;
67762;SDS011;54566;52.022;5.582;2023-01-16T06:02:24;8.02;;;1.83;;
67762;SDS011;54566;52.022;5.582;2023-01-16T06:04:50;8.93;;;1.50;;
67762;SDS011;54566;52.022;5.582;2023-01-16T06:07:16;7.38;;;1.50;;
67762;SDS011;54566;52.022;5.582;2023-01-16T06:09:46;8.63;;;1.88;;
67762;SDS011;54566;52.022;5.582;2023-01-16T06:12:15;8.32;;;1.65;;
67762;SDS011;54566;52.022;5.582;2023-01-16T06:14:42;6.88;;;1.50;;
67762;SDS011;54566;52.022;5.582;2023-01-16T06:17:08;10.10;;;2.33;;
67762;SDS011;54566;52.022;5.582;2023-01-16T06:19:34;6.88;;;1.67;;
67762;SDS011;54566;52.022;5.582;2023-01-16T06:22:00;7.18;;;1.80;;
67762;SDS011;54566;52.022;5.582;2023-01-16T06:27:31;6.38;;;2.20;;
67762;SDS011;54566;52.022;5.582;2023-01-16T06:29:57;2.88;;;1.52;;
67762;SDS011;54566;52.022;5.582;2023-01-16T06:32:28;6.45;;;1.77;;
67762;SDS011;54566;52.022;5.582;2023-01-16T06:34:57;6.40;;;1.80;;
67762;SDS011;54566;52.022;5.582;2023-01-16T06:37:25;8.35;;;1.85;;
67762;SDS011;54566;52.022;5.582;2023-01-16T06:39:51;4.47;;;1.58;;
67762;SDS011;54566;52.022;5.582;2023-01-16T06:42:32;7.65;;;1.60;;
67762;SDS011;54566;52.022;5.582;2023-01-16T06:45:01;11.15;;;2.10;;
67762;SDS011;54566;52.022;5.582;2023-01-16T06:47:31;3.72;;;1.70;;
67762;SDS011;54566;52.022;5.582;2023-01-16T06:52:54;6.82;;;1.50;;
67762;SDS011;54566;52.022;5.582;2023-01-16T06:55:23;5.97;;;2.00;;
67762;SDS011;54566;52.022;5.582;2023-01-16T06:58:15;6.93;;;1.58;;
67762;SDS011;54566;52.022;5.582;2023-01-16T07:04:14;7.55;;;1.60;;
67762;SDS011;54566;52.022;5.582;2023-01-16T07:06:51;10.88;;;1.75;;
67762;SDS011;54566;52.022;5.582;2023-01-16T07:09:25;8.85;;;1.58;;
67762;SDS011;54566;52.022;5.582;2023-01-16T07:12:12;13.20;;;1.90;;
67762;SDS011;54566;52.022;5.582;2023-01-16T07:14:40;9.85;;;2.08;;
67762;SDS011;54566;52.022;5.582;2023-01-16T07:17:25;6.85;;;1.92;;
67762;SDS011;54566;52.022;5.582;2023-01-16T07:20:10;11.65;;;2.00;;
67762;SDS011;54566;52.022;5.582;2023-01-16T07:22:54;7.13;;;1.60;;
67762;SDS011;54566;52.022;5.582;2023-01-16T07:25:21;7.57;;;1.50;;
67762;SDS011;54566;52.022;5.582;2023-01-16T07:27:50;5.90;;;1.90;;
67762;SDS011;54566;52.022;5.582;2023-01-16T07:30:18;6.53;;;1.33;;
67762;SDS011;54566;52.022;5.582;2023-01-16T07:32:45;8.13;;;1.70;;
67762;SDS011;54566;52.022;5.582;2023-01-16T07:35:11;7.22;;;1.35;;
67762;SDS011;54566;52.022;5.582;2023-01-16T07:37:37;1.95;;;1.10;;
67762;SDS011;54566;52.022;5.582;2023-01-16T07:40:04;8.50;;;1.58;;
67762;SDS011;54566;52.022;5.582;2023-01-16T07:42:30;6.65;;;1.25;;
67762;SDS011;54566;52.022;5.582;2023-01-16T07:44:56;5.05;;;1.20;;
67762;SDS011;54566;52.022;5.582;2023-01-16T07:47:22;4.57;;;1.63;;
67762;SDS011;54566;52.022;5.582;2023-01-16T07:49:48;3.25;;;1.25;;
67762;SDS011;54566;52.022;5.582;2023-01-16T07:52:14;6.93;;;1.38;;
67762;SDS011;54566;52.022;5.582;2023-01-16T07:54:42;5.43;;;1.60;;
67762;SDS011;54566;52.022;5.582;2023-01-16T07:57:08;8.60;;;1.20;;
67762;SDS011;54566;52.022;5.582;2023-01-16T07:59:34;6.15;;;1.65;;
67762;SDS011;54566;52.022;5.582;2023-01-16T08:02:00;5.68;;;1.50;;
67762;SDS011;54566;52.022;5.582;2023-01-16T08:04:26;7.18;;;1.50;;
67762;SDS011;54566;52.022;5.582;2023-01-16T08:06:53;7.22;;;1.50;;
67762;SDS011;54566;52.022;5.582;2023-01-16T08:09:19;7.47;;;2.17;;
67762;SDS011;54566;52.022;5.582;2023-01-16T08:11:45;6.13;;;1.90;;
67762;SDS011;54566;52.022;5.582;2023-01-16T08:14:14;4.95;;;1.60;;
67762;SDS011;54566;52.022;5.582;2023-01-16T08:16:40;6.90;;;2.25;;
67762;SDS011;54566;52.022;5.582;2023-01-16T08:19:06;2.47;;;1.52;;
67762;SDS011;54566;52.022;5.582;2023-01-16T08:21:32;7.78;;;2.20;;
67762;SDS011;54566;52.022;5.582;2023-01-16T08:23:58;4.85;;;1.50;;
67762;SDS011;54566;52.022;5.582;2023-01-16T08:26:24;6.45;;;2.00;;
67762;SDS011;54566;52.022;5.582;2023-01-16T08:28:50;16.25;;;1.80;;
67762;SDS011;54566;52.022;5.582;2023-01-16T08:31:17;6.55;;;2.08;;
67762;SDS011;54566;52.022;5.582;2023-01-16T08:33:44;2.58;;;1.30;;
67762;SDS011;54566;52.022;5.582;2023-01-16T08:36:12;4.70;;;1.73;;
67762;SDS011;54566;52.022;5.582;2023-01-16T08:38:38;7.60;;;1.58;;
67762;SDS011;54566;52.022;5.582;2023-01-16T08:41:04;6.60;;;1.60;;
67762;SDS011;54566;52.022;5.582;2023-01-16T08:43:50;3.53;;;1.23;;
67762;SDS011;54566;52.022;5.582;2023-01-16T08:46:35;6.15;;;1.40;;
67762;SDS011;54566;52.022;5.582;2023-01-16T08:49:19;3.90;;;1.70;;
67762;SDS011;54566;52.022;5.582;2023-01-16T08:52:04;6.95;;;1.30;;
67762;SDS011;54566;52.022;5.582;2023-01-16T08:54:31;4.70;;;1.45;;
67762;SDS011;54566;52.022;5.582;2023-01-16T08:56:57;10.35;;;1.70;;
67762;SDS011;54566;52.022;5.582;2023-01-16T08:59:23;4.93;;;1.30;;
67762;SDS011;54566;52.022;5.582;2023-01-16T09:01:49;7.47;;;1.98;;
67762;SDS011;54566;52.022;5.582;2023-01-16T09:04:15;7.03;;;1.55;;
67762;SDS011;54566;52.022;5.582;2023-01-16T09:06:42;10.10;;;1.90;;
67762;SDS011;54566;52.022;5.582;2023-01-16T09:09:08;5.85;;;2.28;;
67762;SDS011;54566;52.022;5.582;2023-01-16T09:11:34;5.88;;;1.77;;
67762;SDS011;54566;52.022;5.582;2023-01-16T09:14:20;4.68;;;1.30;;
67762;SDS011;54566;52.022;5.582;2023-01-16T09:16:46;5.28;;;1.45;;
67762;SDS011;54566;52.022;5.582;2023-01-16T09:19:12;10.77;;;1.90;;
67762;SDS011;54566;52.022;5.582;2023-01-16T09:21:38;5.00;;;1.60;;
67762;SDS011;54566;52.022;5.582;2023-01-16T09:24:04;4.43;;;1.92;;
67762;SDS011;54566;52.022;5.582;2023-01-16T09:26:30;8.70;;;1.80;;
67762;SDS011;54566;52.022;5.582;2023-01-16T09:28:56;5.40;;;1.70;;
67762;SDS011;54566;52.022;5.582;2023-01-16T09:31:24;6.47;;;1.77;;
67762;SDS011;54566;52.022;5.582;2023-01-16T09:33:53;8.50;;;1.70;;
67762;SDS011;54566;52.022;5.582;2023-01-16T09:36:20;5.82;;;2.25;;
67762;SDS011;54566;52.022;5.582;2023-01-16T09:38:46;3.65;;;1.63;;
67762;SDS011;54566;52.022;5.582;2023-01-16T09:41:16;5.65;;;1.83;;
67762;SDS011;54566;52.022;5.582;2023-01-16T09:44:04;6.07;;;1.60;;
67762;SDS011;54566;52.022;5.582;2023-01-16T09:46:30;9.32;;;1.90;;
67762;SDS011;54566;52.022;5.582;2023-01-16T09:49:01;7.78;;;1.70;;
67762;SDS011;54566;52.022;5.582;2023-01-16T09:54:04;3.97;;;1.63;;
67762;SDS011;54566;52.022;5.582;2023-01-16T09:56:52;1.95;;;1.23;;
67762;SDS011;54566;52.022;5.582;2023-01-16T09:59:48;5.93;;;1.48;;
67762;SDS011;54566;52.022;5.582;2023-01-16T10:04:53;3.10;;;1.58;;
67762;SDS011;54566;52.022;5.582;2023-01-16T10:07:27;5.40;;;1.77;;
67762;SDS011;54566;52.022;5.582;2023-01-16T10:12:32;4.72;;;1.42;;
67762;SDS011;54566;52.022;5.582;2023-01-16T10:20:16;2.38;;;1.20;;
67762;SDS011;54566;52.022;5.582;2023-01-16T10:22:57;4.68;;;1.30;;
67762;SDS011;54566;52.022;5.582;2023-01-16T10:25:35;3.20;;;1.33;;
67762;SDS011;54566;52.022;5.582;2023-01-16T10:33:15;1.20;;;1.00;;
67762;SDS011;54566;52.022;5.582;2023-01-16T10:35:46;0.85;;;0.85;;
67762;SDS011;54566;52.022;5.582;2023-01-16T10:44:02;1.55;;;1.00;;
67762;SDS011;54566;52.022;5.582;2023-01-16T10:46:48;0.88;;;0.80;;
67762;SDS011;54566;52.022;5.582;2023-01-16T10:49:34;1.60;;;1.00;;
67762;SDS011;54566;52.022;5.582;2023-01-16T10:52:00;2.83;;;1.20;;
67762;SDS011;54566;52.022;5.582;2023-01-16T10:54:27;2.28;;;1.20;;
67762;SDS011;54566;52.022;5.582;2023-01-16T10:56:53;2.00;;;1.30;;
67762;SDS011;54566;52.022;5.582;2023-01-16T10:59:22;1.40;;;1.30;;
67762;SDS011;54566;52.022;5.582;2023-01-16T11:01:49;1.65;;;1.27;;
67762;SDS011;54566;52.022;5.582;2023-01-16T11:04:17;1.35;;;1.23;;
67762;SDS011;54566;52.022;5.582;2023-01-16T11:06:44;2.65;;;1.25;;
67762;SDS011;54566;52.022;5.582;2023-01-16T11:14:43;5.47;;;1.40;;
67762;SDS011;54566;52.022;5.582;2023-01-16T11:17:29;1.50;;;1.30;;
67762;SDS011;54566;52.022;5.582;2023-01-16T11:23:16;4.80;;;1.30;;
67762;SDS011;54566;52.022;5.582;2023-01-16T11:25:42;4.05;;;1.30;;
67762;SDS011;54566;52.022;5.582;2023-01-16T11:28:11;3.40;;;1.40;;
67762;SDS011;54566;52.022;5.582;2023-01-16T11:30:42;2.13;;;1.40;;
67762;SDS011;54566;52.022;5.582;2023-01-16T11:33:16;1.63;;;1.25;;
67762;SDS011;54566;52.022;5.582;2023-01-16T11:35:46;4.38;;;1.40;;
67762;SDS011;54566;52.022;5.582;2023-01-16T11:38:13;3.22;;;1.30;;
67762;SDS011;54566;52.022;5.582;2023-01-16T11:40:44;1.98;;;1.20;;
67762;SDS011;54566;52.022;5.582;2023-01-16T11:43:15;5.00;;;1.35;;
67762;SDS011;54566;52.022;5.582;2023-01-16T11:46:04;2.17;;;1.20;;
67762;SDS011;54566;52.022;5.582;2023-01-16T11:48:37;1.90;;;1.10;;
67762;SDS011;54566;52.022;5.582;2023-01-16T11:51:04;1.00;;;0.90;;
67762;SDS011;54566;52.022;5.582;2023-01-16T11:53:32;3.10;;;1.20;;
67762;SDS011;54566;52.022;5.582;2023-01-16T12:01:25;4.47;;;1.13;;
67762;SDS011;54566;52.022;5.582;2023-01-16T12:04:16;2.50;;;1.10;;
67762;SDS011;54566;52.022;5.582;2023-01-16T12:09:32;0.80;;;0.80;;
67762;SDS011;54566;52.022;5.582;2023-01-16T12:12:11;3.92;;;1.00;;
67762;SDS011;54566;52.022;5.582;2023-01-16T12:15:02;4.30;;;0.85;;
67762;SDS011;54566;52.022;5.582;2023-01-16T12:20:02;5.63;;;0.98;;
67762;SDS011;54566;52.022;5.582;2023-01-16T12:25:15;0.73;;;0.70;;
67762;SDS011;54566;52.022;5.582;2023-01-16T12:33:42;2.58;;;0.98;;
67762;SDS011;54566;52.022;5.582;2023-01-16T12:36:03;1.38;;;0.73;;
67762;SDS011;54566;52.022;5.582;2023-01-16T12:41:12;4.70;;;0.80;;
67762;SDS011;54566;52.022;5.582;2023-01-16T12:49:35;0.98;;;0.93;;
67762;SDS011;54566;52.022;5.582;2023-01-16T12:54:57;2.85;;;0.90;;
67762;SDS011;54566;52.022;5.582;2023-01-16T12:59:56;3.17;;;0.82;;
67762;SDS011;54566;52.022;5.582;2023-01-16T13:02:45;0.77;;;0.77;;
67762;SDS011;54566;52.022;5.582;2023-01-16T13:05:15;1.10;;;0.75;;
67762;SDS011;54566;52.022;5.582;2023-01-16T13:10:36;2.40;;;0.90;;
67762;SDS011;54566;52.022;5.582;2023-01-16T13:13:23;3.90;;;1.00;;
67762;SDS011;54566;52.022;5.582;2023-01-16T13:18:18;2.08;;;0.80;;
67762;SDS011;54566;52.022;5.582;2023-01-16T13:26:05;1.15;;;0.93;;
67762;SDS011;54566;52.022;5.582;2023-01-16T13:31:00;1.45;;;0.90;;
67762;SDS011;54566;52.022;5.582;2023-01-16T13:33:28;4.28;;;0.95;;
67762;SDS011;54566;52.022;5.582;2023-01-16T13:43:24;2.08;;;1.20;;
67762;SDS011;54566;52.022;5.582;2023-01-16T13:46:29;1.45;;;0.95;;
67762;SDS011;54566;52.022;5.582;2023-01-16T13:48:57;1.50;;;0.82;;
67762;SDS011;54566;52.022;5.582;2023-01-16T13:53:51;3.80;;;1.25;;
67762;SDS011;54566;52.022;5.582;2023-01-16T13:56:19;2.80;;;1.20;;
67762;SDS011;54566;52.022;5.582;2023-01-16T13:58:47;1.13;;;0.88;;
67762;SDS011;54566;52.022;5.582;2023-01-16T14:06:50;1.67;;;1.10;;
67762;SDS011;54566;52.022;5.582;2023-01-16T14:12:21;0.90;;;0.70;;
67762;SDS011;54566;52.022;5.582;2023-01-16T14:14:48;1.02;;;0.90;;
67762;SDS011;54566;52.022;5.582;2023-01-16T14:23:23;4.55;;;1.02;;
67762;SDS011;54566;52.022;5.582;2023-01-16T14:26:12;1.85;;;0.80;;
67762;SDS011;54566;52.022;5.582;2023-01-16T14:28:41;2.67;;;1.08;;
67762;SDS011;54566;52.022;5.582;2023-01-16T14:31:18;1.95;;;1.50;;
67762;SDS011;54566;52.022;5.582;2023-01-16T14:33:47;4.70;;;0.90;;
67762;SDS011;54566;52.022;5.582;2023-01-16T14:36:17;2.95;;;1.05;;
67762;SDS011;54566;52.022;5.582;2023-01-16T14:38:46;1.27;;;1.17;;
67762;SDS011;54566;52.022;5.582;2023-01-16T14:41:15;3.58;;;1.17;;
67762;SDS011;54566;52.022;5.582;2023-01-16T14:44:02;2.50;;;0.85;;
67762;SDS011;54566;52.022;5.582;2023-01-16T14:46:51;3.00;;;0.80;;
67762;SDS011;54566;52.022;5.582;2023-01-16T14:49:39;1.70;;;0.88;;
67762;SDS011;54566;52.022;5.582;2023-01-16T14:53:26;1.33;;;0.85;;
67762;SDS011;54566;52.022;5.582;2023-01-16T14:58:41;1.02;;;0.60;;
67762;SDS011;54566;52.022;5.582;2023-01-16T15:01:20;1.92;;;0.95;;
67762;SDS011;54566;52.022;5.582;2023-01-16T15:04:06;0.88;;;0.82;;
67762;SDS011;54566;52.022;5.582;2023-01-16T15:06:38;2.00;;;1.00;;
67762;SDS011;54566;52.022;5.582;2023-01-16T15:09:05;1.17;;;0.88;;
67762;SDS011;54566;52.022;5.582;2023-01-16T15:11:37;1.27;;;0.82;;
67762;SDS011;54566;52.022;5.582;2023-01-16T15:22:50;2.13;;;1.20;;
67762;SDS011;54566;52.022;5.582;2023-01-16T15:30:48;2.45;;;1.27;;
67762;SDS011;54566;52.022;5.582;2023-01-16T15:33:29;1.85;;;1.50;;
67762;SDS011;54566;52.022;5.582;2023-01-16T15:36:26;6.10;;;1.70;;
67762;SDS011;54566;52.022;5.582;2023-01-16T15:38:55;2.47;;;1.88;;
67762;SDS011;54566;52.022;5.582;2023-01-16T15:41:24;4.25;;;1.63;;
67762;SDS011;54566;52.022;5.582;2023-01-16T15:52:21;2.70;;;1.60;;
67762;SDS011;54566;52.022;5.582;2023-01-16T15:54:51;2.00;;;1.50;;
67762;SDS011;54566;52.022;5.582;2023-01-16T15:57:17;2.85;;;1.63;;
67762;SDS011;54566;52.022;5.582;2023-01-16T15:59:54;2.38;;;1.70;;
67762;SDS011;54566;52.022;5.582;2023-01-16T16:02:24;2.67;;;1.90;;
67762;SDS011;54566;52.022;5.582;2023-01-16T16:04:57;2.38;;;1.60;;
67762;SDS011;54566;52.022;5.582;2023-01-16T16:07:24;2.47;;;1.80;;
67762;SDS011;54566;52.022;5.582;2023-01-16T16:09:51;4.15;;;2.30;;
67762;SDS011;54566;52.022;5.582;2023-01-16T16:12:18;3.78;;;1.77;;
67762;SDS011;54566;52.022;5.582;2023-01-16T16:14:44;3.15;;;1.80;;
67762;SDS011;54566;52.022;5.582;2023-01-16T16:55:51;4.07;;;2.03;;
67762;SDS011;54566;52.022;5.582;2023-01-16T16:58:21;2.58;;;2.10;;
67762;SDS011;54566;52.022;5.582;2023-01-16T17:00:50;2.55;;;2.00;;
67762;SDS011;54566;52.022;5.582;2023-01-16T17:15:31;3.22;;;2.30;;
67762;SDS011;54566;52.022;5.582;2023-01-16T17:17:57;3.28;;;2.50;;
67762;SDS011;54566;52.022;5.582;2023-01-16T17:20:25;5.47;;;2.65;;
67762;SDS011;54566;52.022;5.582;2023-01-16T17:23:02;5.07;;;2.85;;
67762;SDS011;54566;52.022;5.582;2023-01-16T17:25:31;3.63;;;2.83;;
67762;SDS011;54566;52.022;5.582;2023-01-16T17:28:03;9.40;;;3.50;;
67762;SDS011;54566;52.022;5.582;2023-01-16T17:33:50;4.53;;;3.38;;
67762;SDS011;54566;52.022;5.582;2023-01-16T18:20:45;4.03;;;3.15;;
67762;SDS011;54566;52.022;5.582;2023-01-16T18:23:34;3.45;;;2.97;;
67762;SDS011;54566;52.022;5.582;2023-01-16T18:26:03;5.60;;;3.50;;
67762;SDS011;54566;52.022;5.582;2023-01-16T18:28:52;3.78;;;3.22;;
67762;SDS011;54566;52.022;5.582;2023-01-16T18:31:29;4.53;;;3.83;;
67762;SDS011;54566;52.022;5.582;2023-01-16T18:34:14;4.72;;;3.33;;
67762;SDS011;54566;52.022;5.582;2023-01-16T18:36:40;5.53;;;3.10;;
67762;SDS011;54566;52.022;5.582;2023-01-16T18:39:06;3.83;;;3.42;;
67762;SDS011;54566;52.022;5.582;2023-01-16T18:42:07;4.32;;;3.30;;
67762;SDS011;54566;52.022;5.582;2023-01-16T18:44:55;5.05;;;3.45;;
67762;SDS011;54566;52.022;5.582;2023-01-16T18:47:39;4.07;;;3.28;;
67762;SDS011;54566;52.022;5.582;2023-01-16T18:50:31;6.97;;;4.10;;
67762;SDS011;54566;52.022;5.582;2023-01-16T18:53:19;9.25;;;4.30;;
67762;SDS011;54566;52.022;5.582;2023-01-16T18:56:04;5.05;;;4.22;;
67762;SDS011;54566;52.022;5.582;2023-01-16T18:58:49;6.93;;;4.45;;
67762;SDS011;54566;52.022;5.582;2023-01-16T19:01:34;4.38;;;3.80;;
67762;SDS011;54566;52.022;5.582;2023-01-16T19:04:18;7.97;;;4.00;;
67762;SDS011;54566;52.022;5.582;2023-01-16T19:06:44;4.57;;;3.97;;
67762;SDS011;54566;52.022;5.582;2023-01-16T19:09:13;4.55;;;4.10;;
67762;SDS011;54566;52.022;5.582;2023-01-16T19:11:41;5.07;;;4.38;;
67762;SDS011;54566;52.022;5.582;2023-01-16T19:14:07;6.10;;;3.95;;
67762;SDS011;54566;52.022;5.582;2023-01-16T19:16:33;5.38;;;4.10;;
67762;SDS011;54566;52.022;5.582;2023-01-16T19:19:08;6.45;;;3.55;;
67762;SDS011;54566;52.022;5.582;2023-01-16T19:21:34;5.13;;;3.95;;
67762;SDS011;54566;52.022;5.582;2023-01-16T19:26:30;3.88;;;2.80;;
67762;SDS011;54566;52.022;5.582;2023-01-16T19:28:58;4.00;;;3.33;;
67762;SDS011;54566;52.022;5.582;2023-01-16T19:31:25;6.55;;;3.13;;
67762;SDS011;54566;52.022;5.582;2023-01-16T19:33:52;3.80;;;3.08;;
67762;SDS011;54566;52.022;5.582;2023-01-16T19:36:20;4.53;;;3.08;;